createdAt,value
2022-12-23T00:01:20.066Z,6.92
2022-12-23T00:03:50.817Z,6.90
2022-12-23T00:06:22.404Z,6.90
2022-12-23T00:08:58.408Z,6.89
2022-12-23T00:11:29.956Z,6.91
2022-12-23T00:14:21.629Z,6.91
2022-12-23T00:16:52.889Z,6.90
2022-12-23T00:19:23.360Z,6.91
2022-12-23T00:21:54.121Z,6.91
2022-12-23T00:24:24.482Z,6.91
2022-12-23T00:26:55.310Z,6.92
2022-12-23T00:29:25.541Z,6.93
2022-12-23T00:31:55.805Z,6.94
2022-12-23T00:34:26.286Z,6.95
2022-12-23T00:36:57.117Z,6.96
2022-12-23T00:39:45.079Z,6.97
2022-12-23T00:42:47.600Z,6.97
2022-12-23T00:45:18.359Z,6.99
2022-12-23T00:48:07.102Z,7.00
2022-12-23T00:50:38.994Z,7.01
2022-12-23T00:53:09.213Z,7.02
2022-12-23T00:55:39.774Z,7.03
2022-12-23T00:58:09.999Z,7.03
2022-12-23T01:00:58.053Z,7.05
2022-12-23T01:03:46.079Z,7.07
2022-12-23T01:06:16.745Z,7.08
2022-12-23T01:08:47.532Z,7.10
2022-12-23T01:11:17.786Z,7.12
2022-12-23T01:13:48.020Z,7.13
2022-12-23T01:16:18.264Z,7.14
2022-12-23T01:18:48.507Z,7.16
2022-12-23T01:21:18.731Z,7.16
2022-12-23T01:23:49.018Z,7.18
2022-12-23T01:26:19.231Z,7.19
2022-12-23T01:28:49.704Z,7.21
2022-12-23T01:31:20.259Z,7.22
2022-12-23T01:33:50.715Z,7.23
2022-12-23T01:36:21.873Z,7.26
2022-12-23T01:38:52.704Z,7.27
2022-12-23T01:41:43.878Z,7.29
2022-12-23T01:44:56.918Z,7.31
2022-12-23T01:47:33.280Z,7.34
2022-12-23T01:50:08.825Z,7.35
2022-12-23T01:52:45.703Z,7.38
2022-12-23T01:55:19.612Z,7.40
2022-12-23T01:57:52.621Z,7.42
2022-12-23T02:00:41.462Z,7.45
2022-12-23T02:03:30.038Z,7.47
2022-12-23T02:06:21.904Z,7.49
2022-12-23T02:09:09.707Z,7.50
2022-12-23T02:11:48.533Z,7.51
2022-12-23T02:14:50.923Z,7.54
2022-12-23T02:17:26.481Z,7.56
2022-12-23T02:20:20.600Z,7.57
2022-12-23T02:23:14.421Z,7.58
2022-12-23T02:26:08.169Z,7.60
2022-12-23T02:29:04.195Z,7.61
2022-12-23T02:31:43.943Z,7.62
2022-12-23T02:34:20.380Z,7.64
2022-12-23T02:37:00.344Z,7.65
2022-12-23T02:39:38.925Z,7.67
2022-12-23T02:42:14.837Z,7.68
2022-12-23T02:44:49.086Z,7.70
2022-12-23T02:47:23.918Z,7.70
2022-12-23T02:49:56.913Z,7.72
2022-12-23T02:52:31.631Z,7.71
2022-12-23T02:55:06.521Z,7.75
2022-12-23T02:57:40.129Z,7.76
2022-12-23T03:00:13.288Z,7.77
2022-12-23T03:02:45.588Z,7.77
2022-12-23T03:05:33.598Z,7.78
2022-12-23T03:08:03.971Z,7.79
2022-12-23T03:10:45.779Z,7.80
2022-12-23T03:13:24.154Z,7.81
2022-12-23T03:16:02.961Z,7.82
2022-12-23T03:18:40.967Z,7.83
2022-12-23T03:21:12.874Z,7.85
2022-12-23T03:23:55.050Z,7.85
2022-12-23T03:26:31.882Z,7.87
2022-12-23T03:29:10.619Z,7.88
2022-12-23T03:31:43.811Z,7.89
2022-12-23T03:34:20.387Z,7.90
2022-12-23T03:36:56.515Z,7.90
2022-12-23T03:39:33.421Z,7.92
2022-12-23T03:42:12.295Z,7.94
2022-12-23T03:45:19.191Z,7.95
2022-12-23T03:47:45.380Z,7.96
2022-12-23T03:50:18.720Z,7.96
2022-12-23T03:52:56.508Z,7.98
2022-12-23T03:55:31.875Z,7.99
2022-12-23T03:58:08.908Z,8.00
2022-12-23T04:00:47.034Z,8.01
2022-12-23T04:03:23.934Z,8.03
2022-12-23T04:05:59.110Z,8.04
2022-12-23T04:08:33.746Z,8.05
2022-12-23T04:11:05.195Z,8.06
2022-12-23T04:13:35.665Z,8.08
2022-12-23T04:16:06.911Z,8.09
2022-12-23T04:18:37.148Z,8.10
2022-12-23T04:21:08.025Z,8.11
2022-12-23T04:23:40.268Z,8.13
2022-12-23T04:26:10.445Z,8.14
2022-12-23T04:28:40.969Z,8.15
2022-12-23T04:31:11.160Z,8.14
2022-12-23T04:33:41.919Z,8.15
2022-12-23T04:36:12.517Z,8.15
2022-12-23T04:38:42.862Z,8.14
2022-12-23T04:41:13.047Z,8.12
2022-12-23T04:43:47.770Z,8.12
2022-12-23T04:46:22.087Z,8.12
2022-12-23T04:48:52.331Z,8.12
2022-12-23T04:51:23.323Z,8.12
2022-12-23T04:53:53.542Z,8.10
2022-12-23T04:56:24.004Z,8.10
2022-12-23T04:58:54.215Z,8.10
2022-12-23T05:01:24.496Z,8.10
2022-12-23T05:03:54.821Z,8.09
2022-12-23T05:06:25.028Z,8.09
2022-12-23T05:08:55.541Z,8.09
2022-12-23T05:11:25.866Z,8.08
2022-12-23T05:13:56.526Z,8.07
2022-12-23T05:16:27.095Z,8.05
2022-12-23T05:18:57.336Z,8.04
2022-12-23T05:21:27.540Z,8.02
2022-12-23T05:23:58.151Z,8.03
2022-12-23T05:26:28.346Z,8.03
2022-12-23T05:28:58.822Z,8.02
2022-12-23T05:31:29.349Z,8.01
2022-12-23T05:34:05.758Z,8.00
2022-12-23T05:36:37.134Z,7.99
2022-12-23T05:39:07.538Z,7.98
2022-12-23T05:41:37.747Z,7.97
2022-12-23T05:44:08.073Z,7.95
2022-12-23T05:46:38.469Z,7.94
2022-12-23T05:49:09.267Z,7.93
2022-12-23T05:51:39.512Z,7.90
2022-12-23T05:54:09.737Z,7.89
2022-12-23T05:56:40.231Z,7.87
2022-12-23T05:59:11.281Z,7.85
2022-12-23T06:01:41.561Z,7.82
2022-12-23T06:04:11.976Z,7.80
2022-12-23T06:06:42.233Z,7.78
2022-12-23T06:09:13.001Z,7.76
2022-12-23T06:11:43.184Z,7.75
2022-12-23T06:14:14.392Z,7.74
2022-12-23T06:16:44.858Z,7.73
2022-12-23T06:19:15.129Z,7.71
2022-12-23T06:21:45.590Z,7.71
2022-12-23T06:24:15.913Z,7.70
2022-12-23T06:26:46.191Z,7.68
2022-12-23T06:29:16.803Z,7.67
2022-12-23T06:31:47.368Z,7.66
2022-12-23T06:34:17.967Z,7.67
2022-12-23T06:36:48.120Z,7.66
2022-12-23T06:39:18.876Z,7.65
2022-12-23T06:41:49.466Z,7.64
2022-12-23T06:44:20.067Z,7.63
2022-12-23T06:46:50.840Z,7.62
2022-12-23T06:49:21.322Z,7.61
2022-12-23T06:51:52.174Z,7.59
2022-12-23T06:54:23.151Z,7.57
2022-12-23T06:56:53.403Z,7.53
2022-12-23T06:59:24.149Z,7.51
2022-12-23T07:01:54.535Z,7.48
2022-12-23T07:04:24.874Z,7.45
2022-12-23T07:06:55.267Z,7.42
2022-12-23T07:09:26.231Z,7.41
2022-12-23T07:11:56.733Z,7.38
2022-12-23T07:14:27.008Z,7.36
2022-12-23T07:16:57.409Z,7.33
2022-12-23T07:19:28.028Z,7.32
2022-12-23T07:21:58.604Z,7.30
2022-12-23T07:24:28.800Z,7.28
2022-12-23T07:26:58.971Z,7.27
2022-12-23T07:29:29.243Z,7.25
2022-12-23T07:31:59.491Z,7.25
2022-12-23T07:34:30.087Z,7.24
2022-12-23T07:37:00.344Z,7.24
2022-12-23T07:39:30.703Z,7.24
2022-12-23T07:42:33.911Z,7.23
2022-12-23T07:44:51.871Z,7.22
2022-12-23T07:47:23.510Z,7.22
2022-12-23T07:49:54.214Z,7.21
2022-12-23T07:52:24.496Z,7.21
2022-12-23T07:54:54.918Z,7.22
2022-12-23T07:57:25.285Z,7.22
2022-12-23T07:59:55.943Z,7.23
2022-12-23T08:02:26.739Z,7.23
2022-12-23T08:04:57.148Z,7.25
2022-12-23T08:07:27.791Z,7.26
2022-12-23T08:09:58.023Z,7.27
2022-12-23T08:12:28.289Z,7.29
2022-12-23T08:14:58.966Z,7.31
2022-12-23T08:17:31.126Z,7.32
2022-12-23T08:20:01.783Z,7.34
2022-12-23T08:22:33.665Z,7.36
2022-12-23T08:25:04.226Z,7.38
2022-12-23T08:27:35.750Z,7.41
2022-12-23T08:30:07.082Z,7.42
2022-12-23T08:32:37.908Z,7.45
2022-12-23T08:35:09.814Z,7.46
2022-12-23T08:37:40.052Z,7.47
2022-12-23T08:40:12.771Z,7.49
2022-12-23T08:42:43.269Z,7.51
2022-12-23T08:45:13.763Z,7.54
2022-12-23T08:47:44.274Z,7.56
2022-12-23T08:50:14.537Z,7.59
2022-12-23T08:52:44.973Z,7.62
2022-12-23T08:55:15.678Z,7.65
2022-12-23T08:57:46.228Z,7.69
2022-12-23T09:00:17.313Z,7.70
2022-12-23T09:02:48.251Z,7.72
2022-12-23T09:05:18.858Z,7.73
2022-12-23T09:07:49.634Z,7.73
2022-12-23T09:10:20.041Z,7.73
2022-12-23T09:12:50.295Z,7.74
2022-12-23T09:15:20.672Z,7.74
2022-12-23T09:17:51.327Z,7.73
2022-12-23T09:20:21.972Z,7.70
2022-12-23T09:22:52.805Z,7.69
2022-12-23T09:25:23.115Z,7.67
2022-12-23T09:27:53.390Z,7.65
2022-12-23T09:30:23.842Z,7.64
2022-12-23T09:32:54.231Z,7.65
2022-12-23T09:35:24.495Z,7.65
2022-12-23T09:37:55.239Z,7.64
2022-12-23T09:40:25.656Z,7.67
2022-12-23T09:43:07.557Z,7.67
2022-12-23T09:45:54.293Z,7.68
2022-12-23T09:48:29.403Z,7.70
2022-12-23T09:51:00.272Z,7.70
2022-12-23T09:53:41.719Z,7.72
2022-12-23T09:56:20.799Z,7.74
2022-12-23T09:58:57.730Z,7.77
2022-12-23T10:01:42.969Z,7.80
2022-12-23T10:04:48.173Z,7.84
2022-12-23T10:07:29.698Z,7.87
2022-12-23T10:10:04.700Z,7.88
2022-12-23T10:12:41.767Z,7.91
2022-12-23T10:15:22.333Z,7.93
2022-12-23T10:17:57.365Z,7.98
2022-12-23T10:20:36.353Z,8.00
2022-12-23T10:23:13.195Z,8.02
2022-12-23T10:25:50.622Z,8.01
2022-12-23T10:28:21.814Z,8.03
2022-12-23T10:31:38.074Z,8.02
2022-12-23T10:34:05.240Z,8.02
2022-12-23T10:36:45.884Z,8.03
2022-12-23T10:39:31.847Z,8.03
2022-12-23T10:42:13.827Z,8.03
2022-12-23T10:45:10.046Z,8.04
2022-12-23T10:47:49.891Z,8.04
2022-12-23T10:50:48.005Z,8.06
2022-12-23T10:53:23.723Z,8.08
2022-12-23T10:55:54.282Z,8.09
2022-12-23T10:58:26.440Z,8.12
2022-12-23T11:01:00.016Z,8.14
2022-12-23T11:03:33.143Z,8.15
2022-12-23T11:06:07.499Z,8.18
2022-12-23T11:08:39.915Z,8.21
2022-12-23T11:11:10.713Z,8.21
2022-12-23T11:13:43.057Z,8.22
2022-12-23T11:16:19.869Z,8.23
2022-12-23T11:18:59.247Z,8.23
2022-12-23T11:21:30.710Z,8.24
2022-12-23T11:24:16.291Z,8.24
2022-12-23T11:26:48.884Z,8.24
2022-12-23T11:29:25.639Z,8.24
2022-12-23T11:31:57.357Z,8.21
2022-12-23T11:34:32.343Z,8.22
2022-12-23T11:37:07.540Z,8.22
2022-12-23T11:39:39.503Z,8.21
2022-12-23T11:42:16.701Z,8.20
2022-12-23T11:44:51.104Z,8.20
2022-12-23T11:47:30.756Z,8.20
2022-12-23T11:50:05.340Z,8.20
2022-12-23T11:52:36.798Z,8.21
2022-12-23T11:55:23.926Z,8.22
2022-12-23T11:57:54.808Z,8.23
2022-12-23T12:00:30.367Z,8.23
2022-12-23T12:03:04.109Z,8.23
2022-12-23T12:05:39.069Z,8.24
2022-12-23T12:08:14.226Z,8.25
2022-12-23T12:10:45.607Z,8.26
2022-12-23T12:13:29.403Z,8.29
2022-12-23T12:16:11.216Z,8.32
2022-12-23T12:18:45.121Z,8.35
2022-12-23T12:21:20.253Z,8.39
2022-12-23T12:24:08.309Z,8.43
2022-12-23T12:26:45.054Z,8.48
2022-12-23T12:29:21.283Z,8.51
2022-12-23T12:31:54.171Z,8.54
2022-12-23T12:34:33.310Z,8.56
2022-12-23T12:37:11.874Z,8.58
2022-12-23T12:39:48.005Z,8.58
2022-12-23T12:42:22.064Z,8.60
2022-12-23T12:45:00.384Z,8.62
2022-12-23T12:47:53.499Z,8.63
2022-12-23T12:50:30.237Z,8.65
2022-12-23T12:53:05.326Z,8.67
2022-12-23T12:55:42.265Z,8.69
2022-12-23T12:58:19.563Z,8.70
2022-12-23T13:01:03.975Z,8.71
2022-12-23T13:04:08.772Z,8.73
2022-12-23T13:06:48.633Z,8.73
2022-12-23T13:09:29.609Z,8.74
2022-12-23T13:12:06.974Z,8.72
2022-12-23T13:14:51.640Z,8.74
2022-12-23T13:17:25.687Z,8.74
2022-12-23T13:20:01.855Z,8.74
2022-12-23T13:22:35.262Z,8.74
2022-12-23T13:25:12.692Z,8.71
2022-12-23T13:27:50.406Z,8.69
2022-12-23T13:30:23.828Z,8.68
2022-12-23T13:33:06.844Z,8.66
2022-12-23T13:36:04.977Z,8.65
2022-12-23T13:39:00.903Z,8.65
2022-12-23T13:41:35.675Z,8.64
2022-12-23T13:44:10.697Z,8.60
2022-12-23T13:46:50.697Z,8.59
2022-12-23T13:49:29.576Z,8.57
2022-12-23T13:52:06.551Z,8.56
2022-12-23T13:54:51.334Z,8.56
2022-12-23T13:57:43.107Z,8.55
2022-12-23T14:00:31.189Z,8.55
2022-12-23T14:03:24.120Z,8.55
2022-12-23T14:05:54.827Z,8.54
2022-12-23T14:08:41.079Z,8.53
2022-12-23T14:11:20.437Z,8.51
2022-12-23T14:13:58.746Z,8.50
2022-12-23T14:16:38.226Z,8.48
2022-12-23T14:19:32.609Z,8.47
2022-12-23T14:22:14.697Z,8.46
2022-12-23T14:25:24.204Z,8.45
2022-12-23T14:28:02.786Z,8.44
2022-12-23T14:30:37.140Z,8.43
2022-12-23T14:33:24.269Z,8.41
2022-12-23T14:35:58.705Z,8.41
2022-12-23T14:38:31.370Z,8.40
2022-12-23T14:41:36.786Z,8.39
2022-12-23T14:44:21.522Z,8.36
2022-12-23T14:46:59.899Z,8.33
2022-12-23T14:49:47.147Z,8.31
2022-12-23T14:52:49.465Z,8.28
2022-12-23T14:55:57.050Z,8.25
2022-12-23T14:58:37.612Z,8.20
2022-12-23T15:01:13.896Z,8.18
2022-12-23T15:03:48.073Z,8.15
2022-12-23T15:06:24.655Z,8.11
2022-12-23T15:08:56.822Z,8.09
2022-12-23T15:11:30.622Z,8.08
2022-12-23T15:14:03.763Z,8.08
2022-12-23T15:16:36.745Z,8.08
2022-12-23T15:19:23.134Z,8.08
2022-12-23T15:22:13.509Z,8.08
2022-12-23T15:24:50.099Z,8.07
2022-12-23T15:27:30.330Z,8.08
2022-12-23T15:30:01.285Z,8.07
2022-12-23T15:32:31.822Z,8.06
2022-12-23T15:35:07.167Z,8.07
2022-12-23T15:37:37.505Z,8.06
2022-12-23T15:40:23.581Z,8.05
2022-12-23T15:42:54.202Z,8.04
2022-12-23T15:45:42.108Z,8.03
2022-12-23T15:48:26.312Z,8.00
2022-12-23T15:51:02.329Z,7.97
2022-12-23T15:53:36.264Z,7.95
2022-12-23T15:56:11.320Z,7.93
2022-12-23T15:58:43.480Z,7.91
2022-12-23T16:01:18.382Z,7.90
2022-12-23T16:03:55.531Z,7.87
2022-12-23T16:06:28.292Z,7.86
2022-12-23T16:09:03.504Z,7.85
2022-12-23T16:11:51.984Z,7.85
2022-12-23T16:14:37.306Z,7.85
2022-12-23T16:17:23.726Z,7.85
2022-12-23T16:19:56.143Z,7.86
2022-12-23T16:22:30.164Z,7.88
2022-12-23T16:25:12.935Z,7.89
2022-12-23T16:27:47.104Z,7.90
2022-12-23T16:30:20.592Z,7.91
2022-12-23T16:32:56.204Z,7.91
2022-12-23T16:35:33.672Z,7.90
2022-12-23T16:38:15.758Z,7.89
2022-12-23T16:40:47.837Z,7.89
2022-12-23T16:43:19.195Z,7.90
2022-12-23T16:45:53.738Z,7.90
2022-12-23T16:48:30.528Z,7.90
2022-12-23T16:51:02.280Z,7.92
2022-12-23T16:53:32.907Z,7.91
2022-12-23T16:56:03.519Z,7.89
2022-12-23T16:58:33.767Z,7.83
2022-12-23T17:01:04.522Z,7.80
2022-12-23T17:03:35.103Z,7.78
2022-12-23T17:06:05.953Z,7.76
2022-12-23T17:08:36.467Z,7.75
2022-12-23T17:11:07.459Z,7.75
2022-12-23T17:13:37.655Z,7.73
2022-12-23T17:16:11.238Z,7.72
2022-12-23T17:18:41.583Z,7.72
2022-12-23T17:21:19.285Z,7.71
2022-12-23T17:23:51.509Z,7.69
2022-12-23T17:26:21.935Z,7.68
2022-12-23T17:28:52.855Z,7.66
2022-12-23T17:31:26.981Z,7.66
2022-12-23T17:33:58.258Z,7.65
2022-12-23T17:36:28.755Z,7.66
2022-12-23T17:38:59.421Z,7.64
2022-12-23T17:41:32.165Z,7.64
2022-12-23T17:44:02.804Z,7.65
2022-12-23T17:46:33.224Z,7.64
2022-12-23T17:49:03.998Z,7.62
2022-12-23T17:51:34.515Z,7.61
2022-12-23T17:54:06.327Z,7.60
2022-12-23T17:56:36.729Z,7.59
2022-12-23T17:59:07.896Z,7.57
2022-12-23T18:01:44.490Z,7.56
2022-12-23T18:04:18.653Z,7.56
2022-12-23T18:06:54.199Z,7.55
2022-12-23T18:15:26.250Z,7.54
2022-12-23T18:18:19.008Z,7.52
2022-12-23T18:21:06.212Z,7.48
2022-12-23T18:23:37.783Z,7.46
2022-12-23T18:26:08.248Z,7.45
2022-12-23T18:28:38.612Z,7.43
2022-12-23T18:31:14.665Z,7.41
2022-12-23T18:33:45.399Z,7.38
2022-12-23T18:36:24.085Z,7.36
2022-12-23T18:38:55.154Z,7.35
2022-12-23T18:41:26.468Z,7.35
2022-12-23T18:43:57.601Z,7.35
2022-12-23T18:46:28.244Z,7.34
2022-12-23T18:48:58.866Z,7.32
2022-12-23T18:51:29.203Z,7.32
2022-12-23T18:53:59.462Z,7.31
2022-12-23T18:56:30.236Z,7.29
2022-12-23T18:59:00.508Z,7.27
2022-12-23T19:01:30.833Z,7.28
2022-12-23T19:04:01.360Z,7.25
2022-12-23T19:06:31.667Z,7.24
2022-12-23T19:09:03.752Z,7.25
2022-12-23T19:11:34.720Z,7.24
2022-12-23T19:14:05.778Z,7.22
2022-12-23T19:16:36.993Z,7.25
2022-12-23T19:19:09.119Z,7.26
2022-12-23T19:21:39.427Z,7.25
2022-12-23T19:24:09.885Z,7.27
2022-12-23T19:26:40.471Z,7.24
2022-12-23T19:29:13.229Z,7.23
2022-12-23T19:31:44.303Z,7.22
2022-12-23T19:34:15.588Z,7.21
2022-12-23T19:36:47.233Z,7.19
2022-12-23T19:39:20.693Z,7.19
2022-12-23T19:41:51.795Z,7.18
2022-12-23T19:44:22.605Z,7.18
2022-12-23T19:46:53.621Z,7.16
2022-12-23T19:49:24.545Z,7.16
2022-12-23T19:51:55.187Z,7.18
2022-12-23T19:54:26.025Z,7.17
2022-12-23T19:56:56.693Z,7.18
2022-12-23T19:59:27.021Z,7.17
2022-12-23T20:01:57.760Z,7.18
2022-12-23T20:04:28.131Z,7.18
2022-12-23T20:06:58.763Z,7.18
2022-12-23T20:09:29.403Z,7.17
2022-12-23T20:12:00.024Z,7.17
2022-12-23T20:14:34.079Z,7.18
2022-12-23T20:17:04.813Z,7.20
2022-12-23T20:19:39.123Z,7.20
2022-12-23T20:22:14.260Z,7.23
2022-12-23T20:24:44.548Z,7.24
2022-12-23T20:27:16.107Z,7.24
2022-12-23T20:29:47.188Z,7.25
2022-12-23T20:32:17.467Z,7.25
2022-12-23T20:34:50.003Z,7.28
2022-12-23T20:37:27.205Z,7.29
2022-12-23T20:40:05.079Z,7.31
2022-12-23T20:42:57.564Z,7.30
2022-12-23T20:45:28.180Z,7.28
2022-12-23T20:47:59.392Z,7.26
2022-12-23T20:50:29.944Z,7.25
2022-12-23T20:53:00.529Z,7.24
2022-12-23T20:55:32.412Z,7.24
2022-12-23T20:58:22.806Z,7.23
2022-12-23T21:00:53.190Z,7.22
2022-12-23T21:03:23.563Z,7.20
2022-12-23T21:05:58.675Z,7.17
2022-12-23T21:08:29.414Z,7.16
2022-12-23T21:11:00.107Z,7.14
2022-12-23T21:13:30.303Z,7.12
2022-12-23T21:16:05.166Z,7.09
2022-12-23T21:18:35.607Z,7.07
2022-12-23T21:21:07.174Z,7.05
2022-12-23T21:23:41.178Z,7.05
2022-12-23T21:26:14.595Z,7.03
2022-12-23T21:28:46.774Z,7.01
2022-12-23T21:31:19.260Z,7.00
2022-12-23T21:33:51.635Z,7.00
2022-12-23T21:36:23.721Z,6.97
2022-12-23T21:38:54.631Z,6.98
2022-12-23T21:41:28.354Z,6.97
2022-12-23T21:44:00.196Z,6.96
2022-12-23T21:46:31.154Z,6.96
2022-12-23T21:49:02.279Z,6.97
2022-12-23T21:51:40.174Z,6.96
2022-12-23T21:54:12.628Z,6.94
2022-12-23T21:56:43.537Z,6.93
2022-12-23T21:59:15.961Z,6.92
2022-12-23T22:01:46.689Z,6.92
2022-12-23T22:04:17.384Z,6.92
2022-12-23T22:06:48.178Z,6.91
2022-12-23T22:09:20.663Z,6.88
2022-12-23T22:11:50.936Z,6.87
2022-12-23T22:14:21.241Z,6.85
2022-12-23T22:16:51.712Z,6.83
2022-12-23T22:19:22.111Z,6.81
2022-12-23T22:21:53.231Z,6.81
2022-12-23T22:24:23.432Z,6.81
2022-12-23T22:26:53.970Z,6.81
2022-12-23T22:29:24.591Z,6.81
2022-12-23T22:31:54.916Z,6.80
2022-12-23T22:34:25.801Z,6.79
2022-12-23T22:36:56.424Z,6.78
2022-12-23T22:39:26.705Z,6.77
2022-12-23T22:41:56.941Z,6.77
2022-12-23T22:44:27.385Z,6.78
2022-12-23T22:46:57.826Z,6.78
2022-12-23T22:49:29.009Z,6.77
2022-12-23T22:51:59.328Z,6.76
2022-12-23T22:54:30.323Z,6.76
2022-12-23T22:57:00.683Z,6.76
2022-12-23T22:59:30.970Z,6.76
2022-12-23T23:02:01.374Z,6.77
2022-12-23T23:04:32.316Z,6.76
2022-12-23T23:07:02.574Z,6.76
2022-12-23T23:09:33.359Z,6.78
2022-12-23T23:12:03.603Z,6.81
2022-12-23T23:14:52.434Z,6.84
2022-12-23T23:17:24.331Z,6.84
2022-12-23T23:19:55.095Z,6.86
2022-12-23T23:22:26.066Z,6.84
2022-12-23T23:24:56.781Z,6.82
2022-12-23T23:27:27.093Z,6.78
2022-12-23T23:29:57.380Z,6.76
2022-12-23T23:32:27.661Z,6.74
2022-12-23T23:34:57.871Z,6.72
2022-12-23T23:37:28.379Z,6.68
2022-12-23T23:39:58.728Z,6.65
2022-12-23T23:42:29.379Z,6.64
2022-12-23T23:44:59.588Z,6.64
2022-12-23T23:47:34.585Z,6.65
2022-12-23T23:50:06.207Z,6.64
2022-12-23T23:52:36.928Z,6.64
2022-12-23T23:55:08.652Z,6.65
2022-12-23T23:57:38.989Z,6.65
